createdAt,value
2017-07-04T00:00:40.364Z,14
2017-07-04T00:01:42.408Z,14
2017-07-04T00:02:44.446Z,14
2017-07-04T00:03:46.497Z,14
2017-07-04T00:04:48.545Z,14
2017-07-04T00:05:50.591Z,14
2017-07-04T00:06:52.635Z,14
2017-07-04T00:07:54.678Z,14
2017-07-04T00:08:56.726Z,14
2017-07-04T00:09:58.767Z,14
2017-07-04T00:11:00.814Z,13.9
2017-07-04T00:12:02.862Z,13.9
2017-07-04T00:13:04.904Z,13.9
2017-07-04T00:14:06.951Z,13.9
2017-07-04T00:15:08.991Z,13.9
2017-07-04T00:16:11.035Z,13.9
2017-07-04T00:17:13.081Z,14
2017-07-04T00:18:15.123Z,14
2017-07-04T00:19:17.172Z,13.9
2017-07-04T00:20:19.212Z,14
2017-07-04T00:21:21.263Z,13.9
2017-07-04T00:22:23.309Z,13.9
2017-07-04T00:23:25.350Z,13.9
2017-07-04T00:24:27.396Z,13.9
2017-07-04T00:25:29.436Z,13.9
2017-07-04T00:26:31.485Z,13.9
2017-07-04T00:27:33.533Z,13.9
2017-07-04T00:28:35.578Z,13.9
2017-07-04T00:29:37.629Z,13.8
2017-07-04T00:30:39.670Z,13.8
2017-07-04T00:31:42.054Z,13.8
2017-07-04T00:32:44.100Z,13.8
2017-07-04T00:33:46.144Z,13.8
2017-07-04T00:34:48.193Z,13.8
2017-07-04T00:35:50.234Z,13.8
2017-07-04T00:36:52.280Z,13.8
2017-07-04T00:37:54.326Z,13.8
2017-07-04T00:38:56.375Z,13.8
2017-07-04T00:39:58.417Z,13.8
2017-07-04T00:41:00.464Z,13.8
2017-07-04T00:42:02.508Z,13.8
2017-07-04T00:43:04.550Z,13.8
2017-07-04T00:44:06.957Z,13.9
2017-07-04T00:45:09.010Z,13.9
2017-07-04T00:46:11.054Z,13.9
2017-07-04T00:47:13.101Z,13.9
2017-07-04T00:48:15.146Z,13.9
2017-07-04T00:49:17.191Z,13.9
2017-07-04T00:50:19.234Z,13.9
2017-07-04T00:51:21.277Z,13.9
2017-07-04T00:52:23.329Z,13.9
2017-07-04T00:53:25.376Z,13.9
2017-07-04T00:54:27.415Z,13.9
2017-07-04T00:55:29.460Z,14
2017-07-04T00:56:31.510Z,14
2017-07-04T00:57:33.556Z,14
2017-07-04T00:58:35.606Z,14
2017-07-04T00:59:37.646Z,14
2017-07-04T01:00:39.688Z,14
2017-07-04T01:01:41.739Z,13.9
2017-07-04T01:02:43.782Z,14
2017-07-04T01:03:45.823Z,14
2017-07-04T01:04:47.873Z,14
2017-07-04T01:05:49.918Z,13.9
2017-07-04T01:06:51.962Z,13.9
2017-07-04T01:07:54.003Z,13.9
2017-07-04T01:08:56.050Z,13.9
2017-07-04T01:09:58.095Z,13.9
2017-07-04T01:11:00.131Z,13.9
2017-07-04T01:12:02.177Z,13.9
2017-07-04T01:13:04.227Z,13.9
2017-07-04T01:14:06.271Z,13.9
2017-07-04T01:15:08.320Z,13.9
2017-07-04T01:16:10.368Z,13.9
2017-07-04T01:17:12.407Z,13.9
2017-07-04T01:18:14.448Z,13.9
2017-07-04T01:19:16.491Z,13.9
2017-07-04T01:20:18.536Z,13.9
2017-07-04T01:21:20.578Z,13.8
2017-07-04T01:22:22.627Z,13.8
2017-07-04T01:23:24.672Z,13.8
2017-07-04T01:24:26.720Z,13.8
2017-07-04T01:25:28.759Z,13.8
2017-07-04T01:26:31.144Z,13.9
2017-07-04T01:27:33.186Z,13.8
2017-07-04T01:28:35.236Z,13.8
2017-07-04T01:29:37.281Z,13.8
2017-07-04T01:30:39.329Z,13.8
2017-07-04T01:31:41.369Z,13.8
2017-07-04T01:32:43.421Z,13.7
2017-07-04T01:33:45.461Z,13.7
2017-07-04T01:34:47.512Z,13.7
2017-07-04T01:35:49.575Z,13.7
2017-07-04T01:36:51.615Z,13.7
2017-07-04T01:37:53.662Z,13.7
2017-07-04T01:38:55.703Z,13.7
2017-07-04T01:39:57.747Z,13.7
2017-07-04T01:40:59.791Z,13.7
2017-07-04T01:42:01.834Z,13.6
2017-07-04T01:43:03.884Z,13.6
2017-07-04T01:44:05.925Z,13.6
2017-07-04T01:45:07.968Z,13.6
2017-07-04T01:46:10.019Z,13.6
2017-07-04T01:47:12.064Z,13.6
2017-07-04T01:48:14.108Z,13.5
2017-07-04T01:49:16.150Z,13.5
2017-07-04T01:50:18.195Z,13.5
2017-07-04T01:51:20.238Z,13.5
2017-07-04T01:52:22.283Z,13.5
2017-07-04T01:53:24.327Z,13.4
2017-07-04T01:54:26.376Z,13.4
2017-07-04T01:55:28.419Z,13.4
2017-07-04T01:56:30.462Z,13.4
2017-07-04T01:57:32.505Z,13.4
2017-07-04T01:58:34.552Z,13.4
2017-07-04T01:59:36.596Z,13.3
2017-07-04T02:00:38.639Z,13.3
2017-07-04T02:01:40.683Z,13.3
2017-07-04T02:02:42.729Z,13.3
2017-07-04T02:03:44.771Z,13.3
2017-07-04T02:04:46.814Z,13.3
2017-07-04T02:05:48.862Z,13.3
2017-07-04T02:06:51.244Z,13.3
2017-07-04T02:07:53.282Z,13.2
2017-07-04T02:08:55.327Z,13.2
2017-07-04T02:09:57.375Z,13.2
2017-07-04T02:10:59.419Z,13.2
2017-07-04T02:12:01.464Z,13.1
2017-07-04T02:13:03.508Z,13.1
2017-07-04T02:14:05.551Z,13.1
2017-07-04T02:15:07.597Z,13.1
2017-07-04T02:16:09.643Z,13.1
2017-07-04T02:17:11.684Z,13.1
2017-07-04T02:18:13.731Z,13
2017-07-04T02:19:15.783Z,13
2017-07-04T02:20:17.830Z,13
2017-07-04T02:21:19.872Z,13
2017-07-04T02:22:21.921Z,13
2017-07-04T02:23:23.969Z,12.9
2017-07-04T02:24:26.009Z,12.9
2017-07-04T02:25:28.059Z,12.9
2017-07-04T02:26:30.101Z,12.9
2017-07-04T02:27:32.146Z,12.9
2017-07-04T02:28:34.193Z,12.9
2017-07-04T02:29:36.598Z,12.9
2017-07-04T02:30:38.647Z,12.9
2017-07-04T02:31:40.688Z,13
2017-07-04T02:32:42.731Z,12.9
2017-07-04T02:33:45.124Z,12.9
2017-07-04T02:34:47.170Z,12.9
2017-07-04T02:35:49.208Z,12.9
2017-07-04T02:36:51.253Z,12.9
2017-07-04T02:37:53.291Z,12.9
2017-07-04T02:38:55.341Z,12.9
2017-07-04T02:39:57.380Z,12.9
2017-07-04T02:40:59.434Z,12.9
2017-07-04T02:42:01.477Z,12.9
2017-07-04T02:43:03.860Z,12.8
2017-07-04T02:44:05.903Z,12.8
2017-07-04T02:45:07.944Z,12.8
2017-07-04T02:46:09.987Z,12.8
2017-07-04T02:47:12.037Z,12.8
2017-07-04T02:48:14.078Z,12.8
2017-07-04T02:49:16.124Z,12.7
2017-07-04T02:50:18.178Z,12.7
2017-07-04T02:51:20.565Z,12.7
2017-07-04T02:52:22.611Z,12.7
2017-07-04T02:53:24.655Z,12.7
2017-07-04T02:54:26.701Z,12.7
2017-07-04T02:55:28.742Z,12.6
2017-07-04T02:56:30.788Z,12.6
2017-07-04T02:57:32.833Z,12.6
2017-07-04T02:58:34.884Z,12.6
2017-07-04T02:59:36.929Z,12.6
2017-07-04T03:00:39.315Z,12.6
2017-07-04T03:01:41.365Z,12.6
2017-07-04T03:02:43.415Z,12.5
2017-07-04T03:03:45.455Z,12.5
2017-07-04T03:04:47.501Z,12.5
2017-07-04T03:05:49.550Z,12.5
2017-07-04T03:06:51.597Z,12.5
2017-07-04T03:07:53.640Z,12.5
2017-07-04T03:08:55.687Z,12.4
2017-07-04T03:09:57.733Z,12.5
2017-07-04T03:10:59.779Z,12.4
2017-07-04T03:12:01.819Z,12.4
2017-07-04T03:13:03.860Z,12.4
2017-07-04T03:14:05.906Z,12.4
2017-07-04T03:15:07.949Z,12.4
2017-07-04T03:16:09.995Z,12.4
2017-07-04T03:17:12.041Z,12.4
2017-07-04T03:18:14.087Z,12.3
2017-07-04T03:19:16.135Z,12.3
2017-07-04T03:20:18.184Z,12.3
2017-07-04T03:21:20.232Z,12.3
2017-07-04T03:22:22.279Z,12.3
2017-07-04T03:23:24.324Z,12.3
2017-07-04T03:24:26.371Z,12.3
2017-07-04T03:25:28.416Z,12.3
2017-07-04T03:26:30.466Z,12.3
2017-07-04T03:27:32.510Z,12.3
2017-07-04T03:28:34.559Z,12.3
2017-07-04T03:29:36.605Z,12.3
2017-07-04T03:30:38.654Z,12.3
2017-07-04T03:31:40.698Z,12.2
2017-07-04T03:32:42.741Z,12.2
2017-07-04T03:33:44.787Z,12.2
2017-07-04T03:34:46.835Z,12.2
2017-07-04T03:35:48.881Z,12.2
2017-07-04T03:36:50.929Z,12.2
2017-07-04T03:37:52.972Z,12.2
2017-07-04T03:38:55.023Z,12.2
2017-07-04T03:39:57.065Z,12.2
2017-07-04T03:40:59.110Z,12.2
2017-07-04T03:42:01.161Z,12.2
2017-07-04T03:43:03.208Z,12.2
2017-07-04T03:44:05.258Z,12.2
2017-07-04T03:45:07.299Z,12.2
2017-07-04T03:46:09.346Z,12.2
2017-07-04T03:47:11.395Z,12.1
2017-07-04T03:48:13.438Z,12.1
2017-07-04T03:49:15.482Z,12.1
2017-07-04T03:50:17.527Z,12.1
2017-07-04T03:51:19.571Z,12.1
2017-07-04T03:52:21.615Z,12.1
2017-07-04T03:53:23.661Z,12.1
2017-07-04T03:54:25.714Z,12.1
2017-07-04T03:55:27.758Z,12.1
2017-07-04T03:56:29.806Z,12.1
2017-07-04T03:57:31.849Z,12.1
2017-07-04T03:58:33.898Z,12.1
2017-07-04T03:59:35.944Z,12.1
2017-07-04T04:00:38.340Z,12.1
2017-07-04T04:01:40.392Z,12.1
2017-07-04T04:02:42.435Z,12.1
2017-07-04T04:03:44.474Z,12.1
2017-07-04T04:04:46.522Z,12.1
2017-07-04T04:05:48.571Z,12.1
2017-07-04T04:06:50.614Z,12.1
2017-07-04T04:07:52.661Z,12.1
2017-07-04T04:08:55.043Z,12
2017-07-04T04:09:57.093Z,12
2017-07-04T04:10:59.139Z,12
2017-07-04T04:12:01.183Z,12
2017-07-04T04:13:03.229Z,12
2017-07-04T04:14:05.277Z,12.1
2017-07-04T04:15:07.662Z,12.1
2017-07-04T04:16:09.709Z,12.1
2017-07-04T04:17:11.755Z,12.1
2017-07-04T04:18:13.798Z,12.1
2017-07-04T04:19:15.848Z,12.1
2017-07-04T04:20:17.891Z,12.1
2017-07-04T04:21:19.938Z,12.1
2017-07-04T04:22:21.985Z,12.1
2017-07-04T04:23:24.036Z,12.1
2017-07-04T04:24:26.080Z,12.1
2017-07-04T04:25:28.130Z,12.1
2017-07-04T04:26:30.177Z,12
2017-07-04T04:27:32.218Z,12
2017-07-04T04:28:34.267Z,12.1
2017-07-04T04:29:36.314Z,12.1
2017-07-04T04:30:38.362Z,12.1
2017-07-04T04:31:40.415Z,12.1
2017-07-04T04:32:42.457Z,12.1
2017-07-04T04:33:44.505Z,12.1
2017-07-04T04:34:46.547Z,12.1
2017-07-04T04:35:48.598Z,12.2
2017-07-04T04:36:50.647Z,12.2
2017-07-04T04:37:52.693Z,12.2
2017-07-04T04:38:54.742Z,12.2
2017-07-04T04:39:56.786Z,12.2
2017-07-04T04:40:58.836Z,12.3
2017-07-04T04:42:00.885Z,12.3
2017-07-04T04:43:02.928Z,12.3
2017-07-04T04:44:04.974Z,12.3
2017-07-04T04:45:07.019Z,12.3
2017-07-04T04:46:09.070Z,12.4
2017-07-04T04:47:11.117Z,12.4
2017-07-04T04:48:13.161Z,12.4
2017-07-04T04:49:15.208Z,12.4
2017-07-04T04:50:17.253Z,12.4
2017-07-04T04:51:19.307Z,12.5
2017-07-04T04:52:21.355Z,12.5
2017-07-04T04:53:23.409Z,12.5
2017-07-04T04:54:25.525Z,12.5
2017-07-04T04:55:27.729Z,12.5
2017-07-04T04:56:29.789Z,12.6
2017-07-04T04:57:31.838Z,12.6
2017-07-04T04:58:33.900Z,12.6
2017-07-04T04:59:35.953Z,12.6
2017-07-04T05:00:38.002Z,12.6
2017-07-04T05:01:40.247Z,12.6
2017-07-04T05:02:42.382Z,12.6
2017-07-04T05:03:44.469Z,12.7
2017-07-04T05:04:46.544Z,12.7
2017-07-04T05:05:50.403Z,12.8
2017-07-04T05:06:52.842Z,12.8
2017-07-04T05:07:55.245Z,12.8
2017-07-04T05:08:57.650Z,12.9
2017-07-04T05:10:00.104Z,12.9
2017-07-04T05:11:02.513Z,12.9
2017-07-04T05:12:06.208Z,12.9
2017-07-04T05:13:08.876Z,12.9
2017-07-04T05:14:11.772Z,12.9
2017-07-04T05:15:16.654Z,12.9
2017-07-04T05:16:19.964Z,12.9
2017-07-04T05:17:24.038Z,12.8
2017-07-04T05:18:27.812Z,12.8
2017-07-04T05:19:33.036Z,12.9
2017-07-04T05:20:36.281Z,13.1
2017-07-04T05:21:39.766Z,13.1
2017-07-04T05:22:42.427Z,13.2
2017-07-04T05:23:45.710Z,13.2
2017-07-04T05:24:47.998Z,13.3
2017-07-04T05:25:51.637Z,13.2
2017-07-04T05:26:54.416Z,13.2
2017-07-04T05:27:57.601Z,13.3
2017-07-04T05:29:02.882Z,13.3
2017-07-04T05:30:07.709Z,13.3
2017-07-04T05:31:09.820Z,13.3
2017-07-04T05:32:11.873Z,13.4
2017-07-04T05:33:13.920Z,13.4
2017-07-04T05:34:16.565Z,13.4
2017-07-04T05:35:19.006Z,13.4
2017-07-04T05:36:21.366Z,13.4
2017-07-04T05:37:23.822Z,13.4
2017-07-04T05:38:26.324Z,13.3
2017-07-04T05:39:28.757Z,13.3
2017-07-04T05:40:30.908Z,13.3
2017-07-04T05:41:32.975Z,13.3
2017-07-04T05:42:36.063Z,13.3
2017-07-04T05:43:40.356Z,13.3
2017-07-04T05:44:43.435Z,13.3
2017-07-04T05:45:47.599Z,13.3
2017-07-04T05:46:52.422Z,13.4
2017-07-04T05:47:57.094Z,13.4
2017-07-04T05:49:02.281Z,13.4
2017-07-04T05:50:06.622Z,13.5
2017-07-04T05:51:12.120Z,13.5
2017-07-04T05:52:16.982Z,13.6
2017-07-04T05:53:21.277Z,13.5
2017-07-04T05:54:26.699Z,13.6
2017-07-04T05:55:32.722Z,13.6
2017-07-04T05:56:39.250Z,13.6
2017-07-04T05:57:44.873Z,13.8
2017-07-04T05:58:49.945Z,13.8
2017-07-04T05:59:53.761Z,13.9
2017-07-04T06:00:58.859Z,14
2017-07-04T06:02:02.987Z,14
2017-07-04T06:03:09.721Z,14.1
2017-07-04T06:04:15.833Z,14.1
2017-07-04T06:05:20.939Z,14.1
2017-07-04T06:06:26.665Z,14.1
2017-07-04T06:07:33.207Z,14.2
2017-07-04T06:08:40.432Z,14.2
2017-07-04T06:09:46.274Z,14.2
2017-07-04T06:10:49.911Z,14.2
2017-07-04T06:11:53.574Z,14.2
2017-07-04T06:12:59.567Z,14.2
2017-07-04T06:14:04.861Z,14.3
2017-07-04T06:15:09.787Z,14.2
2017-07-04T06:16:15.682Z,14.3
2017-07-04T06:17:19.151Z,14.3
2017-07-04T06:18:21.855Z,14.3
2017-07-04T06:19:24.320Z,14.3
2017-07-04T06:20:26.603Z,14.4
2017-07-04T06:21:28.898Z,14.4
2017-07-04T06:22:30.977Z,14.4
2017-07-04T06:23:33.030Z,14.4
2017-07-04T06:24:35.076Z,14.4
2017-07-04T06:25:37.118Z,14.4
2017-07-04T06:26:39.171Z,14.4
2017-07-04T06:27:41.224Z,14.4
2017-07-04T06:28:43.272Z,14.4
2017-07-04T06:29:45.327Z,14.4
2017-07-04T06:30:47.377Z,14.4
2017-07-04T06:31:49.433Z,14.4
2017-07-04T06:32:51.482Z,14.4
2017-07-04T06:33:53.534Z,14.4
2017-07-04T06:34:55.935Z,14.4
2017-07-04T06:35:57.981Z,14.4
2017-07-04T06:37:00.035Z,14.5
2017-07-04T06:38:02.085Z,14.4
2017-07-04T06:39:04.137Z,14.4
2017-07-04T06:40:06.196Z,14.4
2017-07-04T06:41:08.251Z,14.4
2017-07-04T06:42:10.299Z,14.4
2017-07-04T06:43:12.348Z,14.5
2017-07-04T06:44:14.403Z,14.5
2017-07-04T06:45:16.459Z,14.5
2017-07-04T06:46:18.863Z,14.5
2017-07-04T06:47:20.919Z,14.6
2017-07-04T06:48:22.967Z,14.6
2017-07-04T06:49:25.018Z,14.6
2017-07-04T06:50:27.072Z,14.6
2017-07-04T06:51:29.118Z,14.6
2017-07-04T06:52:31.183Z,14.7
2017-07-04T06:53:33.573Z,14.7
2017-07-04T06:54:35.623Z,14.7
2017-07-04T06:55:37.673Z,14.8
2017-07-04T06:56:39.720Z,14.7
2017-07-04T06:57:41.787Z,14.7
2017-07-04T06:58:44.173Z,14.8
2017-07-04T06:59:46.222Z,14.8
2017-07-04T07:00:48.286Z,14.8
2017-07-04T07:01:50.343Z,14.9
2017-07-04T07:02:52.391Z,14.9
2017-07-04T07:03:54.445Z,14.9
2017-07-04T07:04:56.495Z,14.9
2017-07-04T07:05:58.547Z,14.9
2017-07-04T07:07:00.945Z,15
2017-07-04T07:08:03.007Z,15
2017-07-04T07:09:05.058Z,15
2017-07-04T07:10:07.108Z,15
2017-07-04T07:11:09.164Z,15.1
2017-07-04T07:12:11.207Z,15
2017-07-04T07:13:13.254Z,15.1
2017-07-04T07:14:15.308Z,15.1
2017-07-04T07:15:17.352Z,15.2
2017-07-04T07:16:19.408Z,15.1
2017-07-04T07:17:21.467Z,15.1
2017-07-04T07:18:23.516Z,15.1
2017-07-04T07:19:25.567Z,15.1
2017-07-04T07:20:27.962Z,15.2
2017-07-04T07:21:30.014Z,15.3
2017-07-04T07:22:32.066Z,15.4
2017-07-04T07:23:34.113Z,15.4
2017-07-04T07:24:36.162Z,15.6
2017-07-04T07:25:38.214Z,15.6
2017-07-04T07:26:40.260Z,15.6
2017-07-04T07:27:42.313Z,15.8
2017-07-04T07:28:44.367Z,15.7
2017-07-04T07:29:46.419Z,15.6
2017-07-04T07:30:48.469Z,15.6
2017-07-04T07:31:50.868Z,15.6
2017-07-04T07:32:52.921Z,15.7
2017-07-04T07:33:54.971Z,15.7
2017-07-04T07:34:57.029Z,15.8
2017-07-04T07:35:59.078Z,15.8
2017-07-04T07:37:01.136Z,15.9
2017-07-04T07:38:03.539Z,16
2017-07-04T07:39:05.591Z,16
2017-07-04T07:40:07.640Z,16.1
2017-07-04T07:41:09.693Z,15.9
2017-07-04T07:42:11.742Z,15.9
2017-07-04T07:43:13.796Z,16.1
2017-07-04T07:44:15.847Z,16.1
2017-07-04T07:45:17.903Z,16.2
2017-07-04T07:46:19.955Z,16.2
2017-07-04T07:47:22.006Z,16.3
2017-07-04T07:48:24.063Z,16.3
2017-07-04T07:49:26.112Z,16.3
2017-07-04T07:50:28.163Z,16.3
2017-07-04T07:51:30.216Z,16.3
2017-07-04T07:52:32.272Z,16.4
2017-07-04T07:53:34.321Z,16.3
2017-07-04T07:54:36.376Z,16.3
2017-07-04T07:55:38.429Z,16.3
2017-07-04T07:56:40.483Z,16.4
2017-07-04T07:57:42.537Z,16.4
2017-07-04T07:58:44.588Z,16.3
2017-07-04T07:59:46.639Z,16.2
2017-07-04T08:00:48.691Z,16.2
2017-07-04T08:01:50.742Z,16.2
2017-07-04T08:02:52.795Z,16.3
2017-07-04T08:03:54.852Z,16.3
2017-07-04T08:04:56.909Z,16.2
2017-07-04T08:05:58.964Z,16.2
2017-07-04T08:07:01.018Z,16.2
2017-07-04T08:08:03.411Z,16.2
2017-07-04T08:09:05.480Z,16.1
2017-07-04T08:10:07.533Z,16
2017-07-04T08:11:09.585Z,16
2017-07-04T08:12:11.639Z,16
2017-07-04T08:13:13.688Z,16
2017-07-04T08:14:15.745Z,16.1
2017-07-04T08:15:17.802Z,16.3
2017-07-04T08:16:19.856Z,16.4
2017-07-04T08:17:21.911Z,16.3
2017-07-04T08:18:23.966Z,16.4
2017-07-04T08:19:26.014Z,16.3
2017-07-04T08:20:28.073Z,16.3
2017-07-04T08:21:30.128Z,16.4
2017-07-04T08:22:32.180Z,16.4
2017-07-04T08:23:34.234Z,16.4
2017-07-04T08:24:36.285Z,16.4
2017-07-04T08:25:38.338Z,16.4
2017-07-04T08:26:40.394Z,16.4
2017-07-04T08:27:42.483Z,16.4
2017-07-04T08:28:44.507Z,16.3
2017-07-04T08:29:46.560Z,16.2
2017-07-04T08:30:48.607Z,16.1
2017-07-04T08:31:50.657Z,16
2017-07-04T08:32:52.718Z,16.1
2017-07-04T08:33:54.767Z,16.3
2017-07-04T08:34:56.821Z,16.4
2017-07-04T08:35:58.878Z,16.5
2017-07-04T08:37:01.274Z,16.5
2017-07-04T08:38:03.680Z,16.6
2017-07-04T08:39:05.738Z,16.5
2017-07-04T08:40:07.781Z,16.7
2017-07-04T08:41:09.839Z,16.8
2017-07-04T08:42:11.890Z,17
2017-07-04T08:43:13.942Z,17.1
2017-07-04T08:44:15.995Z,17.2
2017-07-04T08:45:18.053Z,17.3
2017-07-04T08:46:20.108Z,17.4
2017-07-04T08:47:22.159Z,17.5
2017-07-04T08:48:24.218Z,17.5
2017-07-04T08:49:26.269Z,17.5
2017-07-04T08:50:28.317Z,17.3
2017-07-04T08:51:30.375Z,17.2
2017-07-04T08:52:32.429Z,17
2017-07-04T08:53:34.484Z,16.9
2017-07-04T08:54:36.536Z,16.8
2017-07-04T08:55:38.585Z,16.8
2017-07-04T08:56:40.646Z,16.7
2017-07-04T08:57:42.697Z,16.7
2017-07-04T08:58:44.753Z,16.7
2017-07-04T08:59:47.151Z,16.8
2017-07-04T09:00:49.206Z,17.1
2017-07-04T09:01:51.254Z,17.3
2017-07-04T09:02:53.354Z,17.2
2017-07-04T09:03:55.365Z,17
2017-07-04T09:04:57.423Z,17
2017-07-04T09:05:59.475Z,16.9
2017-07-04T09:07:01.524Z,16.8
2017-07-04T09:08:03.578Z,16.8
2017-07-04T09:09:05.631Z,16.8
2017-07-04T09:10:07.683Z,17.1
2017-07-04T09:11:09.735Z,17.3
2017-07-04T09:12:11.789Z,17.1
2017-07-04T09:13:13.842Z,17.2
2017-07-04T09:14:15.901Z,17.4
2017-07-04T09:15:17.958Z,17.6
2017-07-04T09:16:20.007Z,17.6
2017-07-04T09:17:22.058Z,17.6
2017-07-04T09:18:24.120Z,17.6
2017-07-04T09:19:26.171Z,17.9
2017-07-04T09:20:28.220Z,18
2017-07-04T09:21:30.275Z,17.9
2017-07-04T09:22:32.331Z,17.6
2017-07-04T09:23:34.386Z,17.5
2017-07-04T09:24:36.443Z,17.5
2017-07-04T09:25:38.496Z,17.5
2017-07-04T09:26:40.551Z,17.4
2017-07-04T09:27:42.598Z,17.3
2017-07-04T09:28:44.654Z,17.3
2017-07-04T09:29:46.709Z,17.3
2017-07-04T09:30:48.759Z,17.3
2017-07-04T09:31:50.817Z,17.4
2017-07-04T09:32:52.871Z,17.4
2017-07-04T09:33:54.925Z,17.4
2017-07-04T09:34:56.980Z,17.4
2017-07-04T09:35:59.034Z,17.5
2017-07-04T09:37:01.089Z,17.5
2017-07-04T09:38:03.136Z,17.5
2017-07-04T09:39:05.194Z,17.6
2017-07-04T09:40:07.252Z,17.7
2017-07-04T09:41:09.309Z,17.8
2017-07-04T09:42:11.362Z,17.8
2017-07-04T09:43:13.415Z,17.7
2017-07-04T09:44:15.475Z,17.7
2017-07-04T09:45:17.527Z,17.5
2017-07-04T09:46:19.578Z,17.6
2017-07-04T09:47:21.637Z,17.5
2017-07-04T09:48:23.695Z,17.5
2017-07-04T09:49:25.753Z,17.5
2017-07-04T09:50:27.806Z,17.5
2017-07-04T09:51:29.865Z,17.4
2017-07-04T09:52:31.913Z,17.4
2017-07-04T09:53:33.976Z,17.5
2017-07-04T09:54:36.029Z,17.5
2017-07-04T09:55:38.086Z,17.9
2017-07-04T09:56:40.144Z,18.2
2017-07-04T09:57:42.540Z,18.4
2017-07-04T09:58:44.942Z,18.8
2017-07-04T09:59:47.000Z,18.9
2017-07-04T10:00:49.057Z,19.1
2017-07-04T10:01:51.120Z,19.3
2017-07-04T10:02:53.173Z,19.4
2017-07-04T10:03:55.225Z,19.4
2017-07-04T10:04:57.281Z,19.3
2017-07-04T10:05:59.335Z,19.5
2017-07-04T10:07:01.388Z,19.5
2017-07-04T10:08:03.447Z,19.8
2017-07-04T10:09:05.505Z,20.1
2017-07-04T10:10:07.566Z,20
2017-07-04T10:11:09.624Z,19.8
2017-07-04T10:12:11.682Z,19.7
2017-07-04T10:13:13.739Z,19.5
2017-07-04T10:14:15.798Z,19.5
2017-07-04T10:15:17.851Z,19.2
2017-07-04T10:16:19.913Z,19
2017-07-04T10:17:21.968Z,18.9
2017-07-04T10:18:24.030Z,18.7
2017-07-04T10:19:26.090Z,18.6
2017-07-04T10:20:28.149Z,18.5
2017-07-04T10:21:30.205Z,18.2
2017-07-04T10:22:32.261Z,18.1
2017-07-04T10:23:34.319Z,18
2017-07-04T10:24:36.374Z,18
2017-07-04T10:25:38.434Z,18.1
2017-07-04T10:26:40.485Z,18.1
2017-07-04T10:27:42.887Z,18
2017-07-04T10:28:44.944Z,18
2017-07-04T10:29:47.004Z,18
2017-07-04T10:30:49.058Z,18
2017-07-04T10:31:51.117Z,18
2017-07-04T10:32:53.188Z,18.1
2017-07-04T10:33:55.239Z,18.3
2017-07-04T10:34:57.288Z,18.2
2017-07-04T10:35:59.348Z,18.3
2017-07-04T10:37:01.405Z,18.2
2017-07-04T10:38:03.464Z,18.3
2017-07-04T10:39:05.523Z,18.3
2017-07-04T10:40:07.578Z,18.2
2017-07-04T10:41:09.636Z,18.3
2017-07-04T10:42:11.694Z,18.4
2017-07-04T10:43:13.751Z,18.4
2017-07-04T10:44:15.814Z,18.6
2017-07-04T10:45:17.870Z,18.8
2017-07-04T10:46:19.931Z,19.3
2017-07-04T10:47:21.991Z,19.5
2017-07-04T10:48:24.049Z,19.5
2017-07-04T10:49:26.104Z,19.7
2017-07-04T10:50:28.164Z,19.8
2017-07-04T10:51:30.217Z,19.6
2017-07-04T10:52:32.275Z,19.5
2017-07-04T10:53:34.334Z,19.3
2017-07-04T10:54:36.395Z,19.1
2017-07-04T10:55:38.449Z,18.9
2017-07-04T10:56:40.508Z,19
2017-07-04T10:57:42.568Z,18.9
2017-07-04T10:58:44.623Z,19
2017-07-04T10:59:46.683Z,18.9
2017-07-04T11:00:48.745Z,18.6
2017-07-04T11:01:50.798Z,18.5
2017-07-04T11:02:52.857Z,18.6
2017-07-04T11:03:54.917Z,18.6
2017-07-04T11:04:56.976Z,18.6
2017-07-04T11:05:59.033Z,18.5
2017-07-04T11:07:01.082Z,18.5
2017-07-04T11:08:03.142Z,18.2
2017-07-04T11:09:05.201Z,18.2
2017-07-04T11:10:07.261Z,18.3
2017-07-04T11:11:09.321Z,18.3
2017-07-04T11:12:11.377Z,18.4
2017-07-04T11:13:13.435Z,18.4
2017-07-04T11:14:15.831Z,18.5
2017-07-04T11:15:17.892Z,18.6
2017-07-04T11:16:19.951Z,18.7
2017-07-04T11:17:22.348Z,18.8
2017-07-04T11:18:24.406Z,19
2017-07-04T11:19:26.458Z,19.3
2017-07-04T11:20:28.515Z,19.5
2017-07-04T11:21:30.574Z,19.5
2017-07-04T11:22:32.628Z,19.8
2017-07-04T11:23:34.688Z,20
2017-07-04T11:24:36.746Z,20.3
2017-07-04T11:25:38.800Z,20.4
2017-07-04T11:26:40.858Z,20.1
2017-07-04T11:27:42.919Z,20
2017-07-04T11:28:44.975Z,20
2017-07-04T11:29:47.036Z,19.7
2017-07-04T11:30:49.094Z,19.4
2017-07-04T11:31:51.135Z,19.2
2017-07-04T11:32:53.183Z,18.9
2017-07-04T11:33:55.216Z,18.8
2017-07-04T11:34:57.251Z,18.7
2017-07-04T11:35:59.292Z,18.7
2017-07-04T11:37:01.344Z,18.7
2017-07-04T11:38:03.388Z,18.6
2017-07-04T11:39:05.421Z,18.6
2017-07-04T11:40:07.465Z,18.6
2017-07-04T11:41:09.495Z,18.7
2017-07-04T11:42:11.547Z,18.8
2017-07-04T11:43:13.592Z,18.9
2017-07-04T11:44:15.623Z,18.9
2017-07-04T11:45:17.659Z,19
2017-07-04T11:46:19.693Z,19
2017-07-04T11:47:21.747Z,18.9
2017-07-04T11:48:24.469Z,18.9
2017-07-04T11:49:26.555Z,19.1
2017-07-04T11:50:28.597Z,19.2
2017-07-04T11:51:30.630Z,19.2
2017-07-04T11:52:32.712Z,19.2
2017-07-04T11:53:34.750Z,19
2017-07-04T11:54:36.781Z,18.9
2017-07-04T11:55:38.845Z,18.8
2017-07-04T11:56:40.879Z,18.7
2017-07-04T11:57:42.910Z,18.7
2017-07-04T11:58:45.007Z,18.9
2017-07-04T11:59:47.036Z,19.3
2017-07-04T12:00:49.072Z,19.6
2017-07-04T12:01:51.112Z,19.6
2017-07-04T12:02:53.148Z,19.5
2017-07-04T12:03:55.181Z,19.4
2017-07-04T12:04:57.559Z,19.2
2017-07-04T12:05:59.603Z,19.3
2017-07-04T12:07:01.641Z,19.2
2017-07-04T12:08:03.673Z,19.3
2017-07-04T12:09:05.705Z,19.3
2017-07-04T12:10:07.739Z,19.2
2017-07-04T12:11:09.766Z,19.5
2017-07-04T12:12:11.799Z,19.6
2017-07-04T12:13:13.839Z,19.6
2017-07-04T12:14:15.875Z,19.5
2017-07-04T12:15:17.910Z,19.5
2017-07-04T12:16:19.943Z,19.5
2017-07-04T12:17:21.975Z,19.5
2017-07-04T12:18:24.012Z,19.5
2017-07-04T12:19:26.051Z,19.5
2017-07-04T12:20:28.083Z,19.5
2017-07-04T12:21:30.114Z,19.5
2017-07-04T12:22:32.154Z,19.3
2017-07-04T12:23:34.237Z,19.4
2017-07-04T12:24:36.281Z,19.3
2017-07-04T12:25:38.657Z,19.3
2017-07-04T12:26:40.701Z,19.3
2017-07-04T12:27:42.737Z,19.2
2017-07-04T12:28:44.769Z,19.1
2017-07-04T12:29:46.806Z,19.1
2017-07-04T12:30:48.839Z,19.1
2017-07-04T12:31:50.863Z,18.9
2017-07-04T12:32:52.902Z,18.9
2017-07-04T12:33:54.942Z,19
2017-07-04T12:34:56.977Z,19.2
2017-07-04T12:35:59.043Z,19.3
2017-07-04T12:37:01.097Z,19.3
2017-07-04T12:38:03.141Z,19.3
2017-07-04T12:39:05.164Z,19.3
2017-07-04T12:40:07.198Z,19.2
2017-07-04T12:41:09.237Z,19
2017-07-04T12:42:11.277Z,19
2017-07-04T12:43:13.308Z,18.9
2017-07-04T12:44:15.340Z,19
2017-07-04T12:45:17.376Z,19.1
2017-07-04T12:46:19.412Z,19.2
2017-07-04T12:47:21.440Z,19.3
2017-07-04T12:48:23.482Z,19.5
2017-07-04T12:49:25.517Z,19.6
2017-07-04T12:50:27.552Z,19.6
2017-07-04T12:51:29.588Z,19.8
2017-07-04T12:52:31.628Z,19.9
2017-07-04T12:53:33.668Z,20
2017-07-04T12:54:35.698Z,19.8
2017-07-04T12:55:37.737Z,20
2017-07-04T12:56:39.777Z,20.6
2017-07-04T12:57:41.812Z,20.8
2017-07-04T12:58:43.851Z,21.2
2017-07-04T12:59:45.885Z,21.2
2017-07-04T13:00:47.925Z,21.3
2017-07-04T13:01:49.961Z,21.1
2017-07-04T13:02:52.000Z,20.7
2017-07-04T13:03:54.032Z,20.6
2017-07-04T13:04:56.063Z,20.8
2017-07-04T13:05:58.098Z,21.1
2017-07-04T13:07:00.151Z,21.2
2017-07-04T13:08:02.186Z,21.1
2017-07-04T13:09:04.221Z,20.9
2017-07-04T13:10:06.253Z,20.7
2017-07-04T13:11:08.294Z,20.5
2017-07-04T13:12:10.322Z,20.3
2017-07-04T13:13:12.360Z,20.3
2017-07-04T13:14:14.412Z,20.4
2017-07-04T13:15:16.788Z,20.3
2017-07-04T13:16:18.827Z,20.1
2017-07-04T13:17:20.867Z,20
2017-07-04T13:18:22.910Z,19.9
2017-07-04T13:19:24.941Z,19.8
2017-07-04T13:20:26.980Z,19.7
2017-07-04T13:21:29.020Z,19.6
2017-07-04T13:22:31.066Z,19.5
2017-07-04T13:23:33.099Z,19.6
2017-07-04T13:24:35.130Z,19.5
2017-07-04T13:25:37.179Z,19.6
2017-07-04T13:26:39.216Z,19.6
2017-07-04T13:27:41.249Z,19.7
2017-07-04T13:28:43.292Z,19.6
2017-07-04T13:29:45.322Z,19.5
2017-07-04T13:30:47.359Z,20
2017-07-04T13:31:49.405Z,20.2
2017-07-04T13:32:51.442Z,20.5
2017-07-04T13:33:53.483Z,20.8
2017-07-04T13:34:55.519Z,20.6
2017-07-04T13:35:57.555Z,20.7
2017-07-04T13:36:59.596Z,20.3
2017-07-04T13:38:01.635Z,20.2
2017-07-04T13:39:03.686Z,20.4
2017-07-04T13:40:05.722Z,20.4
2017-07-04T13:41:07.763Z,20.5
2017-07-04T13:42:09.798Z,20.7
2017-07-04T13:43:11.841Z,21
2017-07-04T13:44:13.878Z,21.1
2017-07-04T13:45:15.923Z,21.3
2017-07-04T13:46:17.958Z,21.2
2017-07-04T13:47:19.998Z,21.3
2017-07-04T13:48:22.041Z,21.6
2017-07-04T13:49:24.075Z,21.8
2017-07-04T13:50:26.114Z,22.1
2017-07-04T13:51:28.158Z,22.1
2017-07-04T13:52:30.197Z,21.9
2017-07-04T13:53:32.609Z,21.6